Time;durP1;ratioP1;P1;durP2;ratioP2;P2;SDS_P1;SDS_P2;PMS_P1;PMS_P2;Temp;Humidity;BMP_temperature;BMP_pressure;BME280_temperature;BME280_humidity;BME280_pressure;Samples;Min_cycle;Max_cycle;Signal;HPM_P1;HPM_P2
2022/05/10 00:01:27;;;;;;;22.48;18.58;;;14.60;99.90;;;14.40;100.00;100940.63;4976657;28;20196;-66
2022/05/10 00:03:58;;;;;;;21.33;19.38;;;14.60;99.90;;;14.46;100.00;100941.56;4943038;28;20223;-66
2022/05/10 00:06:32;;;;;;;23.48;19.73;;;14.60;99.90;;;14.52;100.00;100938.91;4973410;28;20649;-66
2022/05/10 00:09:00;;;;;;;20.50;16.15;;;14.70;99.90;;;14.62;100.00;100935.34;4982750;28;20252;-66
2022/05/10 00:11:28;;;;;;;19.55;14.93;;;14.70;99.90;;;14.67;100.00;100938.91;4975438;28;20207;-66
2022/05/10 00:13:56;;;;;;;21.02;15.77;;;14.70;99.90;;;14.57;100.00;100931.81;4951084;28;20201;-66
2022/05/10 00:16:24;;;;;;;18.48;13.90;;;14.80;99.90;;;14.37;100.00;100932.63;4960327;28;20202;-66
2022/05/10 00:18:52;;;;;;;33.58;17.17;;;14.70;99.90;;;14.30;100.00;100925.53;4958556;28;20262;-66
2022/05/10 00:21:25;;;;;;;18.50;13.95;;;14.70;99.90;;;14.31;100.00;100934.41;4973823;28;20209;-66
2022/05/10 00:23:53;;;;;;;17.77;12.20;;;14.60;99.90;;;14.39;100.00;100937.97;4965665;28;20209;-66
2022/05/10 00:26:21;;;;;;;15.65;12.00;;;14.60;99.90;;;14.07;100.00;100936.09;4957074;28;20205;-66
2022/05/10 00:28:49;;;;;;;20.48;15.88;;;14.60;99.90;;;14.08;100.00;100942.28;4958228;28;20235;-66
2022/05/10 00:31:18;;;;;;;14.50;12.98;;;14.50;99.90;;;14.28;100.00;100960.97;4974830;28;20205;-65
2022/05/10 00:33:46;;;;;;;26.90;16.52;;;14.50;99.90;;;14.09;100.00;100968.91;4972555;28;20208;-66
2022/05/10 00:36:16;;;;;;;23.40;17.30;;;14.50;99.90;;;14.19;100.00;100976.91;4976812;28;20225;-66
2022/05/10 00:38:44;;;;;;;22.33;19.17;;;14.40;99.90;;;14.33;100.00;100980.53;4940005;28;20229;-65
2022/05/10 00:41:43;;;;;;;20.90;15.25;;;14.40;99.90;;;14.19;100.00;100969.81;4965540;28;20200;-65
2022/05/10 00:44:20;;;;;;;22.77;18.15;;;14.40;99.90;;;14.17;100.00;100968.91;4989271;28;20223;-65
2022/05/10 00:47:03;;;;;;;19.17;16.85;;;14.50;99.90;;;13.84;100.00;100963.47;4973864;28;20255;-65
2022/05/10 00:50:01;;;;;;;24.90;22.98;;;14.40;99.90;;;13.83;100.00;100972.34;4957355;28;20259;-65
2022/05/10 00:52:59;;;;;;;24.65;22.33;;;14.20;99.90;;;13.89;100.00;101001.63;4973969;28;20205;-65
2022/05/10 00:55:44;;;;;;;23.48;21.30;;;14.20;99.90;;;13.76;100.00;101008.63;4975017;28;20573;-65
2022/05/10 00:58:49;;;;;;;23.15;21.23;;;14.10;99.90;;;13.86;100.00;101004.25;4975606;28;20220;-65
2022/05/10 01:01:28;;;;;;;27.88;25.52;;;14.10;99.90;;;13.91;100.00;100995.41;4971152;28;20204;-66
2022/05/10 01:04:27;;;;;;;27.23;23.40;;;14.10;99.90;;;14.04;100.00;100993.69;4957415;28;20202;-65
2022/05/10 01:07:27;;;;;;;25.25;22.92;;;14.20;99.90;;;13.62;100.00;101013.88;4924365;28;20212;-65
2022/05/10 01:10:17;;;;;;;29.30;26.45;;;14.10;99.90;;;13.70;100.00;101022.78;4973075;28;20229;-65
2022/05/10 01:12:54;;;;;;;44.58;31.15;;;14.00;99.90;;;13.66;100.00;101014.78;4968598;28;20212;-65
2022/05/10 01:15:24;;;;;;;33.97;31.30;;;14.00;99.90;;;13.56;100.00;101029.78;4952934;28;20211;-65
2022/05/10 01:17:58;;;;;;;37.45;34.00;;;13.90;99.90;;;13.19;100.00;101018.03;4939789;28;20224;-65
2022/05/10 01:20:41;;;;;;;31.80;29.13;;;13.80;99.90;;;13.12;100.00;101040.06;4974434;28;20227;-65
2022/05/10 01:23:48;;;;;;;33.67;30.45;;;13.70;99.90;;;12.81;100.00;101052.13;4972120;28;20205;-65
2022/05/10 01:26:58;;;;;;;38.97;36.15;;;13.50;99.90;;;13.05;100.00;101086.91;4967656;28;20209;-65
2022/05/10 01:30:11;;;;;;;37.97;34.90;;;13.40;99.90;;;13.07;100.00;101093.13;4941048;28;20228;-65
2022/05/10 01:36:36;;;;;;;34.58;31.92;;;13.40;99.90;;;13.16;100.00;101075.50;4987540;28;20216;-65
2022/05/10 01:39:20;;;;;;;35.80;32.97;;;13.40;99.90;;;13.14;100.00;101070.19;4973474;28;20236;-65
2022/05/10 01:41:55;;;;;;;37.08;34.10;;;13.40;99.90;;;13.19;100.00;101062.28;4973255;28;20212;-65
2022/05/10 01:44:42;;;;;;;38.75;35.60;;;13.40;99.90;;;13.12;100.00;101048.91;4954196;28;20201;-65
2022/05/10 01:47:20;;;;;;;39.33;36.83;;;13.40;99.90;;;13.15;100.00;101048.06;4970187;28;20664;-65
2022/05/10 01:49:52;;;;;;;44.22;40.88;;;13.40;99.90;;;13.13;100.00;101049.81;4953114;28;20239;-65
2022/05/10 01:52:49;;;;;;;39.67;36.92;;;13.30;99.90;;;13.00;100.00;101054.13;4955711;28;20218;-65
2022/05/10 01:58:39;;;;;;;46.55;43.60;;;13.30;99.90;;;13.07;100.00;101076.31;4965077;28;20226;-65
2022/05/10 02:01:25;;;;;;;38.72;35.70;;;13.20;99.90;;;13.04;100.00;101070.97;4939520;28;20205;-65
2022/05/10 02:04:03;;;;;;;42.92;39.35;;;13.30;99.90;;;12.94;100.00;101054.03;4971255;28;20223;-65
2022/05/10 02:06:33;;;;;;;32.95;30.08;;;13.20;99.90;;;13.09;100.00;101056.88;4952960;28;20197;-65
2022/05/10 02:09:21;;;;;;;36.90;34.20;;;13.20;99.90;;;13.16;100.00;101039.22;4971446;28;20228;-65
2022/05/10 02:12:00;;;;;;;39.40;35.80;;;13.20;99.90;;;13.17;100.00;101021.53;4970047;28;20208;-65
2022/05/10 02:14:34;;;;;;;37.75;34.72;;;13.20;99.90;;;13.20;100.00;101013.59;4939227;28;20208;-65
2022/05/10 02:17:36;;;;;;;38.45;35.55;;;13.10;99.90;;;13.31;100.00;101023.44;4968278;28;20209;-65
2022/05/10 02:20:15;;;;;;;38.80;36.60;;;13.20;99.90;;;13.41;100.00;101027.94;4970611;28;20246;-65
2022/05/10 02:22:53;;;;;;;40.40;37.33;;;13.20;99.90;;;13.41;100.00;101024.38;4957344;28;20200;-65
2022/05/10 02:25:27;;;;;;;38.38;36.13;;;13.20;99.90;;;13.40;100.00;101019.94;4965834;28;20231;-65
2022/05/10 02:28:16;;;;;;;43.15;39.88;;;13.20;99.90;;;13.34;100.00;101012.81;4945126;28;20207;-65
2022/05/10 02:30:53;;;;;;;38.65;35.88;;;13.30;99.90;;;13.22;100.00;101026.00;4940796;28;20220;-65
2022/05/10 02:33:21;;;;;;;36.25;33.67;;;13.20;99.90;;;13.19;100.00;101015.38;4959280;28;20207;-65
2022/05/10 02:35:58;;;;;;;41.25;37.88;;;13.20;99.90;;;13.29;100.00;101013.66;4939543;28;20197;-65
2022/05/10 02:38:34;;;;;;;43.33;40.05;;;13.20;99.90;;;13.19;100.00;101023.34;4941485;28;20228;-65
2022/05/10 02:41:12;;;;;;;41.15;38.15;;;13.20;99.90;;;13.04;100.00;101024.06;4953018;28;20582;-65
2022/05/10 02:43:53;;;;;;;38.67;36.50;;;13.20;99.90;;;12.99;100.00;101036.38;4947986;28;20212;-64
2022/05/10 02:46:24;;;;;;;42.50;39.45;;;13.10;99.90;;;12.86;100.00;101071.66;4937511;28;20197;-65
2022/05/10 02:48:52;;;;;;;43.85;40.38;;;13.00;99.90;;;12.86;100.00;101089.34;4971800;28;20224;-65
2022/05/10 02:51:21;;;;;;;42.47;39.38;;;13.00;99.90;;;12.89;100.00;101102.66;4939917;28;20209;-65
2022/05/10 02:53:49;;;;;;;42.70;39.58;;;12.90;99.90;;;12.76;100.00;101115.78;4987034;28;20583;-65
2022/05/10 02:56:21;;;;;;;41.10;38.20;;;12.90;99.90;;;12.67;100.00;101147.53;4942766;28;20658;-65
2022/05/10 02:58:57;;;;;;;47.40;44.45;;;12.90;99.90;;;12.51;100.00;101156.19;4954319;28;20236;-65
2022/05/10 03:01:50;;;;;;;42.13;39.50;;;12.80;99.90;;;12.49;100.00;101152.63;4951888;28;20212;-65
2022/05/10 03:04:22;;;;;;;47.75;45.25;;;12.80;99.90;;;12.40;100.00;101149.84;4985405;28;20201;-65
2022/05/10 03:06:50;;;;;;;53.47;49.75;;;12.70;99.90;;;12.23;100.00;101146.09;4940736;28;20554;-65
2022/05/10 03:09:18;;;;;;;55.72;51.85;;;12.60;99.90;;;12.21;100.00;101148.72;4938143;28;20697;-65
2022/05/10 03:11:46;;;;;;;59.15;55.05;;;12.50;99.90;;;12.44;100.00;101162.28;4938070;28;20209;-65
2022/05/10 03:14:14;;;;;;;55.95;52.65;;;12.50;99.90;;;12.53;100.00;101148.25;4970957;28;20216;-65
2022/05/10 03:16:42;;;;;;;56.10;53.15;;;12.50;99.90;;;12.39;100.00;101148.06;4971547;28;20208;-65
2022/05/10 03:19:10;;;;;;;56.05;52.03;;;12.50;99.90;;;12.35;100.00;101160.41;4952981;28;20232;-65
2022/05/10 03:21:40;;;;;;;50.80;47.50;;;12.50;99.90;;;12.29;100.00;101162.09;4955064;28;20209;-65
2022/05/10 03:24:08;;;;;;;51.88;49.50;;;12.50;99.90;;;12.21;100.00;101166.38;4973278;28;20576;-65
2022/05/10 03:26:36;;;;;;;55.75;52.25;;;12.50;99.90;;;11.94;100.00;101196.94;4954914;28;20204;-65
2022/05/10 03:29:05;;;;;;;55.15;51.85;;;12.30;99.90;;;11.77;100.00;101195.75;4957569;28;20228;-65
2022/05/10 03:31:33;;;;;;;65.07;60.38;;;12.20;99.90;;;11.85;100.00;101213.59;4972667;28;20215;-65
2022/05/10 03:36:48;;;;;;;61.33;57.42;;;12.20;99.90;;;12.16;100.00;101207.00;4989064;28;20277;-65
2022/05/10 03:39:16;;;;;;;50.92;47.60;;;12.20;99.90;;;12.20;100.00;101186.72;4984185;28;20256;-65
2022/05/10 03:41:44;;;;;;;53.58;49.72;;;12.20;99.90;;;12.25;100.00;101162.91;4939350;28;20680;-65
2022/05/10 03:44:12;;;;;;;51.67;47.72;;;12.30;99.90;;;12.33;100.00;101145.34;4953960;28;20200;-65
2022/05/10 03:46:40;;;;;;;47.22;44.47;;;12.30;99.90;;;12.13;100.00;101145.97;4939745;28;20204;-65
2022/05/10 03:49:08;;;;;;;51.58;48.08;;;12.40;99.90;;;11.74;100.00;101182.44;4935020;28;20248;-65
2022/05/10 03:51:36;;;;;;;44.88;41.70;;;12.20;99.90;;;11.80;100.00;101206.41;4976922;28;20212;-65
2022/05/10 03:54:04;;;;;;;51.72;48.58;;;12.20;99.90;;;11.69;100.00;101222.06;4985104;28;20215;-65
2022/05/10 03:56:34;;;;;;;44.67;41.53;;;12.10;99.90;;;11.80;100.00;101232.94;4940557;28;20236;-65
2022/05/10 03:59:04;;;;;;;51.70;47.17;;;12.10;99.90;;;11.65;100.00;101233.50;4970095;28;20240;-65
2022/05/10 04:01:36;;;;;;;56.15;52.33;;;12.00;99.90;;;11.60;100.00;101234.28;4954704;28;20205;-65
2022/05/10 04:04:04;;;;;;;66.10;61.88;;;11.90;99.90;;;11.60;100.00;101264.31;4939757;28;20560;-65
2022/05/10 04:06:32;;;;;;;59.45;55.67;;;11.90;99.90;;;11.83;100.00;101263.03;4993467;28;20216;-65
2022/05/10 04:09:00;;;;;;;47.97;45.00;;;11.90;99.90;;;11.95;100.00;101251.72;4978269;28;20235;-65
2022/05/10 04:11:31;;;;;;;53.92;49.88;;;12.00;99.90;;;11.64;100.00;101252.91;4972307;28;20240;-65
2022/05/10 04:14:00;;;;;;;52.53;48.15;;;11.90;99.90;;;11.73;100.00;101263.69;4990982;28;20205;-65
2022/05/10 04:16:28;;;;;;;53.42;48.53;;;11.90;99.90;;;11.71;100.00;101267.19;4972746;28;20208;-65
2022/05/10 04:18:56;;;;;;;48.08;44.50;;;11.90;99.90;;;11.71;100.00;101276.03;4947138;28;20346;-65
2022/05/10 04:21:27;;;;;;;52.08;48.40;;;11.90;99.90;;;11.77;100.00;101285.84;4966871;28;20213;-64
2022/05/10 04:23:58;;;;;;;42.78;39.00;;;11.90;99.90;;;11.84;100.00;101278.06;4953373;28;20203;-64
2022/05/10 04:26:27;;;;;;;48.53;44.65;;;11.90;99.90;;;11.96;100.00;101255.28;4952244;28;20217;-65
2022/05/10 04:28:55;;;;;;;51.55;46.45;;;12.00;99.90;;;12.07;100.00;101264.28;4969387;28;20224;-65
2022/05/10 04:31:24;;;;;;;54.47;49.75;;;12.00;99.90;;;11.99;100.00;101279.19;4970880;28;20196;-65
2022/05/10 04:33:52;;;;;;;50.10;44.72;;;12.00;99.90;;;12.01;100.00;101288.06;4940058;28;20209;-65
2022/05/10 04:36:23;;;;;;;40.85;38.40;;;12.00;99.90;;;12.04;100.00;101296.94;4957317;28;20216;-65
2022/05/10 04:38:51;;;;;;;39.97;37.22;;;12.00;99.90;;;12.17;100.00;101308.66;4975173;28;20225;-65
2022/05/10 04:41:26;;;;;;;36.03;33.50;;;12.10;99.90;;;12.19;100.00;101317.53;4975169;28;20224;-65
2022/05/10 04:44:07;;;;;;;43.97;40.85;;;12.10;99.90;;;12.27;100.00;101326.50;4978039;28;20207;-65
2022/05/10 04:46:38;;;;;;;40.30;37.65;;;12.20;99.90;;;12.35;100.00;101319.56;4956568;28;20201;-65
2022/05/10 04:49:09;;;;;;;49.75;46.17;;;12.20;99.90;;;12.47;100.00;101321.50;4951590;28;20448;-65
2022/05/10 04:51:38;;;;;;;43.58;39.88;;;12.30;99.90;;;12.51;100.00;101310.06;4941655;28;20565;-65
2022/05/10 04:54:08;;;;;;;39.22;36.65;;;12.40;99.90;;;12.58;100.00;101305.75;4973148;28;20289;-65
2022/05/10 04:56:35;;;;;;;45.53;42.60;;;12.40;99.90;;;12.66;100.00;101306.75;4945619;28;20228;-65
2022/05/10 04:59:03;;;;;;;42.35;39.10;;;12.50;99.90;;;12.76;100.00;101292.72;4955646;28;20229;-65
2022/05/10 05:01:32;;;;;;;37.83;35.15;;;12.90;99.90;;;12.83;100.00;101314.06;4952811;28;20225;-65
2022/05/10 05:04:01;;;;;;;35.50;33.72;;;12.60;99.90;;;12.87;100.00;101311.47;4966649;28;20212;-65
2022/05/10 05:06:30;;;;;;;33.25;30.60;;;12.60;99.90;;;12.94;100.00;101316.88;4982560;28;20752;-65
2022/05/10 05:08:57;;;;;;;30.42;28.55;;;12.70;99.90;;;13.02;100.00;101327.63;4960620;28;20712;-65
2022/05/10 05:11:26;;;;;;;34.63;31.92;;;12.80;99.90;;;13.08;100.00;101293.19;4990247;28;20215;-65
2022/05/10 05:13:53;;;;;;;39.03;36.20;;;12.80;99.90;;;13.30;100.00;101336.88;4974080;28;20208;-65
2022/05/10 05:16:21;;;;;;;43.22;40.42;;;12.90;99.90;;;13.36;100.00;101300.66;4975354;28;20209;-65
2022/05/10 05:18:50;;;;;;;42.75;39.78;;;13.10;99.90;;;13.45;100.00;101284.81;4980128;28;20225;-65
2022/05/10 05:21:18;;;;;;;45.53;42.42;;;13.20;99.90;;;13.60;100.00;101262.81;4974924;28;20235;-65
2022/05/10 05:23:46;;;;;;;48.22;45.17;;;13.30;99.90;;;13.72;100.00;101240.78;4990732;28;20201;-65
2022/05/10 05:26:14;;;;;;;43.95;41.00;;;13.50;99.90;;;13.87;100.00;101259.50;4942838;28;20688;-65
2022/05/10 05:28:42;;;;;;;38.90;36.10;;;13.60;99.90;;;13.88;100.00;101245.34;4942691;28;20227;-65
2022/05/10 05:31:13;;;;;;;41.30;39.10;;;13.70;99.90;;;14.04;100.00;101295.13;4973969;28;20215;-65
2022/05/10 05:33:46;;;;;;;50.88;47.60;;;13.80;99.90;;;14.11;100.00;101264.16;4959128;28;20216;-65
2022/05/10 05:36:13;;;;;;;36.75;34.05;;;13.90;99.90;;;14.25;100.00;101302.38;4958224;28;20213;-65
2022/05/10 05:38:44;;;;;;;34.67;32.72;;;13.90;99.90;;;14.29;100.00;101296.22;4958896;28;20224;-65
2022/05/10 05:41:12;;;;;;;46.33;43.75;;;14.10;99.90;;;14.43;100.00;101290.16;4958460;28;20232;-65
2022/05/10 05:43:40;;;;;;;37.95;35.25;;;14.10;99.90;;;14.47;100.00;101265.34;4958650;28;20207;-65
2022/05/10 05:46:08;;;;;;;46.03;41.15;;;14.20;99.90;;;14.56;100.00;101252.09;4957714;28;20212;-65
2022/05/10 05:48:37;;;;;;;42.72;39.97;;;14.30;99.90;;;14.68;100.00;101269.03;4974042;28;20200;-65
2022/05/10 05:51:05;;;;;;;47.25;43.63;;;14.30;99.90;;;14.68;100.00;101258.38;4973992;28;20197;-65
2022/05/10 05:53:33;;;;;;;44.50;41.55;;;14.40;99.90;;;14.80;100.00;101238.03;4973622;28;20219;-65
2022/05/10 05:56:08;;;;;;;44.90;41.35;;;14.50;99.90;;;14.93;100.00;101247.84;4973168;28;20212;-65
2022/05/10 05:58:38;;;;;;;46.45;42.78;;;14.50;99.90;;;15.03;100.00;101231.00;4972817;28;20200;-65
2022/05/10 06:01:15;;;;;;;45.33;41.65;;;14.50;99.90;;;15.17;100.00;101223.94;4974025;28;20239;-65
2022/05/10 06:03:44;;;;;;;44.60;41.10;;;14.70;99.90;;;15.31;100.00;101195.56;4957773;28;20208;-65
2022/05/10 06:06:12;;;;;;;44.38;40.80;;;14.80;99.90;;;15.56;100.00;101200.91;4940458;28;20212;-65
2022/05/10 06:08:44;;;;;;;44.05;41.13;;;14.90;99.90;;;15.65;100.00;101183.22;4973065;28;20228;-65
2022/05/10 06:11:13;;;;;;;42.38;39.42;;;15.10;99.90;;;15.79;100.00;101175.22;4973380;28;20209;-65
2022/05/10 06:13:41;;;;;;;47.95;44.17;;;15.20;99.90;;;15.99;100.00;101168.09;4973029;28;20211;-65
2022/05/10 06:16:09;;;;;;;53.05;49.13;;;15.40;99.90;;;16.11;100.00;101152.94;4951716;28;20212;-65
2022/05/10 06:18:37;;;;;;;51.17;46.38;;;15.50;99.90;;;15.94;100.00;101124.50;4948968;28;20216;-65
2022/05/10 06:21:05;;;;;;;43.78;40.00;;;15.60;99.90;;;16.01;100.00;101120.06;4940917;28;20586;-65
2022/05/10 06:23:33;;;;;;;40.05;36.97;;;15.70;99.90;;;16.15;100.00;101128.03;4933547;28;20201;-65
2022/05/10 06:26:01;;;;;;;55.88;50.72;;;15.70;99.90;;;16.23;100.00;101124.44;4969228;28;20205;-65
2022/05/10 06:28:29;;;;;;;45.83;41.90;;;15.80;99.90;;;16.16;100.00;101109.34;4958044;28;20208;-65
2022/05/10 06:30:57;;;;;;;47.20;43.13;;;15.90;99.90;;;16.32;100.00;101119.06;4971836;28;20700;-65
2022/05/10 06:33:25;;;;;;;40.25;36.85;;;16.00;99.90;;;16.54;100.00;101118.97;4970754;28;20223;-65
2022/05/10 06:35:54;;;;;;;42.78;38.78;;;16.10;99.90;;;16.49;100.00;101089.63;4986491;28;20219;-65
2022/05/10 06:38:29;;;;;;;44.30;41.08;;;16.30;99.90;;;16.50;100.00;101079.84;4937224;28;20213;-65
2022/05/10 06:41:01;;;;;;;41.22;38.47;;;16.30;99.90;;;16.60;100.00;101070.88;4957813;28;20224;-65
2022/05/10 06:43:35;;;;;;;45.90;43.17;;;16.40;99.90;;;16.94;100.00;101071.63;4950761;28;20207;-65
2022/05/10 06:46:16;;;;;;;31.65;29.40;;;16.60;99.90;;;17.08;100.00;101069.75;4933784;28;20215;-65
2022/05/10 06:48:47;;;;;;;33.55;30.45;;;16.70;99.90;;;17.11;100.00;101042.09;4957164;28;20228;-65
2022/05/10 06:51:21;;;;;;;28.58;26.48;;;16.90;99.90;;;17.07;100.00;101035.00;4946888;28;20209;-65
2022/05/10 06:53:50;;;;;;;23.50;21.67;;;17.00;99.90;;;17.34;100.00;101036.56;4960966;28;20366;-64
2022/05/10 06:56:18;;;;;;;24.63;20.55;;;17.20;99.90;;;17.52;100.00;101037.28;4957034;28;20216;-64
2022/05/10 06:58:46;;;;;;;22.00;19.65;;;17.40;99.90;;;17.35;100.00;101006.25;4941643;28;20228;-65
2022/05/10 07:01:14;;;;;;;22.20;19.52;;;17.50;99.90;;;17.45;100.00;101011.50;4960244;28;20239;-65
2022/05/10 07:03:51;;;;;;;20.33;16.20;;;17.60;99.90;;;17.48;100.00;101000.78;4956166;28;20212;-65
2022/05/10 07:06:24;;;;;;;19.85;15.90;;;17.60;99.90;;;17.47;100.00;101000.78;4947482;28;20216;-65
2022/05/10 07:08:52;;;;;;;20.65;18.55;;;17.60;99.90;;;17.86;100.00;101039.63;4979335;28;20221;-65
2022/05/10 07:11:21;;;;;;;20.33;18.15;;;17.80;99.90;;;17.77;100.00;101000.50;4933174;28;20208;-65
2022/05/10 07:13:49;;;;;;;16.92;15.15;;;18.10;99.90;;;17.72;100.00;100978.25;4973641;28;20223;-65
2022/05/10 07:16:17;;;;;;;22.30;14.77;;;18.30;99.90;;;17.98;100.00;100988.63;4938121;28;20213;-65
2022/05/10 07:18:45;;;;;;;14.30;8.23;;;18.40;99.90;;;17.95;100.00;100972.63;4953982;28;20236;-65
2022/05/10 07:21:13;;;;;;;9.15;6.82;;;18.50;99.90;;;18.00;100.00;100985.94;4956314;28;20233;-65
2022/05/10 07:23:41;;;;;;;16.02;8.38;;;18.60;99.90;;;17.98;100.00;100980.63;4966974;28;20208;-65
2022/05/10 07:26:08;;;;;;;17.63;8.45;;;18.60;99.90;;;18.09;100.00;100978.69;4959721;28;20542;-65
2022/05/10 07:28:37;;;;;;;16.73;6.93;;;18.60;99.90;;;18.54;100.00;101003.97;4979732;28;20208;-65
2022/05/10 07:31:11;;;;;;;5.75;3.97;;;18.80;99.90;;;18.67;100.00;100988.63;4925429;28;20205;-65
2022/05/10 07:33:39;;;;;;;16.73;4.82;;;18.90;99.90;;;18.68;100.00;100970.75;4954021;28;20209;-65
2022/05/10 07:36:24;;;;;;;17.33;6.03;;;19.00;99.90;;;18.79;100.00;100947.34;4957461;28;20660;-65
2022/05/10 07:38:53;;;;;;;24.08;7.07;;;19.10;99.90;;;19.43;100.00;100962.31;4969109;28;20240;-65
2022/05/10 07:41:24;;;;;;;15.75;4.43;;;19.50;99.90;;;19.23;100.00;100917.09;4951154;28;20225;-65
2022/05/10 07:43:53;;;;;;;11.70;2.97;;;19.60;99.90;;;19.09;100.00;100897.69;4960336;28;20208;-65
2022/05/10 07:46:21;;;;;;;17.73;4.30;;;19.60;99.90;;;19.07;100.00;100892.34;4954501;28;20225;-65
2022/05/10 07:48:50;;;;;;;15.15;3.83;;;19.60;99.90;;;19.43;100.00;100931.00;4974541;28;20681;-65
2022/05/10 07:51:19;;;;;;;14.32;4.22;;;19.70;99.90;;;19.61;100.00;100923.56;4976158;28;20219;-65
2022/05/10 07:53:48;;;;;;;9.27;2.92;;;19.80;99.90;;;19.85;100.00;100904.25;4948738;28;20212;-65
2022/05/10 07:56:16;;;;;;;15.02;3.92;;;20.00;99.90;;;19.58;100.00;100837.78;4943706;28;20208;-65
2022/05/10 07:58:56;;;;;;;7.88;2.15;;;20.20;99.90;;;19.73;100.00;100856.22;4974987;28;20224;-66
2022/05/10 08:01:26;;;;;;;15.55;3.85;;;20.20;99.90;;;19.92;98.15;100829.84;4975485;28;20225;-66
2022/05/10 08:03:55;;;;;;;12.15;2.80;;;20.40;99.90;;;20.43;96.12;100838.50;4980913;28;20196;-66
2022/05/10 08:06:23;;;;;;;12.65;3.13;;;20.80;99.90;;;20.65;96.72;100842.41;4979152;28;20197;-66
2022/05/10 08:08:51;;;;;;;12.68;2.83;;;21.10;99.90;;;20.84;95.62;100824.00;4945041;28;20228;-66
2022/05/10 08:11:20;;;;;;;22.90;5.28;;;21.40;99.90;;;21.05;96.07;100825.22;4970219;28;20287;-66
2022/05/10 08:13:48;;;;;;;14.60;3.80;;;21.70;99.90;;;20.80;95.96;100790.03;4945363;28;20212;-66
2022/05/10 08:16:16;;;;;;;13.48;3.05;;;21.80;99.90;;;20.92;94.42;100783.47;4943131;28;20216;-66
2022/05/10 08:18:49;;;;;;;14.05;3.30;;;21.90;99.90;;;21.19;92.19;100774.63;4956017;28;20236;-66
2022/05/10 08:21:17;;;;;;;13.13;2.97;;;22.10;99.90;;;21.08;94.40;100760.59;4973182;28;20216;-66
2022/05/10 08:23:47;;;;;;;25.50;6.45;;;22.10;99.90;;;21.42;95.44;100806.25;4942053;28;20199;-66
2022/05/10 08:26:15;;;;;;;21.70;5.25;;;22.10;99.90;;;20.98;91.86;100694.56;4958104;28;20312;-66
2022/05/10 08:28:43;;;;;;;24.13;5.45;;;22.00;99.90;;;22.13;91.20;100796.91;4989320;28;20235;-66
2022/05/10 08:31:10;;;;;;;23.23;5.10;;;22.30;99.90;;;21.42;93.18;100716.59;4965179;28;20223;-66
2022/05/10 08:33:41;;;;;;;17.50;3.92;;;22.20;99.90;;;21.54;90.84;100695.56;4956814;28;20219;-66
2022/05/10 08:36:11;;;;;;;9.50;2.33;;;22.20;99.90;;;21.09;92.12;100646.72;4961001;28;20665;-66
2022/05/10 08:38:39;;;;;;;8.20;1.85;;;21.90;99.90;;;21.62;92.68;100717.72;4976128;28;20211;-65
2022/05/10 08:41:22;;;;;;;8.35;2.00;;;22.00;99.90;;;22.30;92.66;100768.50;4949194;28;20652;-66
2022/05/10 08:43:58;;;;;;;17.52;4.40;;;22.40;99.90;;;22.59;90.84;100758.50;4953814;28;20219;-66
2022/05/10 08:46:38;;;;;;;19.35;4.43;;;22.60;99.90;;;22.72;87.93;100710.41;4953792;28;20222;-65
2022/05/10 08:49:34;;;;;;;14.20;3.33;;;23.10;99.90;;;22.96;89.61;100709.53;4938840;28;20229;-66
2022/05/10 08:52:03;;;;;;;18.13;4.32;;;23.50;99.90;;;23.18;86.23;100686.22;4975416;28;20216;-66
2022/05/10 08:54:31;;;;;;;24.05;5.40;;;23.80;99.90;;;23.36;87.16;100690.00;4968626;28;20220;-67
2022/05/10 08:57:40;;;;;;;16.60;3.83;;;24.10;99.90;;;23.43;88.52;100682.56;4970281;28;20226;-65
2022/05/10 09:00:33;;;;;;;13.85;3.25;;;24.40;99.90;;;23.34;89.25;100645.13;4988067;28;20228;-66
2022/05/10 09:03:51;;;;;;;15.73;3.65;;;24.50;99.90;;;23.29;87.36;100592.22;4952141;28;20216;-66
2022/05/10 09:06:51;;;;;;;16.05;3.75;;;24.70;99.90;;;23.33;87.39;100605.59;4958359;28;20204;-66
2022/05/10 09:09:52;;;;;;;15.07;3.55;;;24.50;99.90;;;23.40;87.00;100594.47;4967162;28;20692;-66
2022/05/10 09:12:23;;;;;;;13.65;3.22;;;24.50;99.90;;;23.40;86.72;100588.19;4953505;28;20216;-66
2022/05/10 09:15:02;;;;;;;14.55;3.45;;;24.50;99.90;;;23.63;86.62;100603.50;4956401;28;20211;-66
2022/05/10 09:17:36;;;;;;;11.93;3.08;;;24.60;99.90;;;23.44;86.49;100565.56;4990675;28;20215;-66
2022/05/10 09:20:07;;;;;;;25.35;5.63;;;24.40;99.90;;;23.23;85.55;100518.72;4968774;28;20232;-66
2022/05/10 09:23:15;;;;;;;12.82;3.30;;;24.50;99.90;;;24.06;86.95;100630.44;4973225;28;20238;-66
2022/05/10 09:25:45;;;;;;;6.07;2.05;;;24.80;99.90;;;24.45;86.75;100638.63;4955322;28;20208;-66
2022/05/10 09:28:30;;;;;;;10.05;2.58;;;25.10;99.90;;;24.29;84.96;100583.50;4926472;28;20340;-66
2022/05/10 09:34:47;;;;;;;13.93;3.58;;;25.50;99.90;;;24.33;84.27;100516.66;4986857;28;20668;-66
2022/05/10 09:37:29;;;;;;;15.35;4.60;;;25.60;99.90;;;24.50;85.30;100555.47;4959581;28;20223;-66
2022/05/10 09:39:57;;;;;;;11.88;3.15;;;25.50;99.90;;;24.62;85.75;100551.31;4971738;28;20703;-66
2022/05/10 09:42:39;;;;;;;11.00;2.65;;;25.60;99.90;;;24.58;80.30;100460.50;4947372;28;20221;-66
2022/05/10 09:45:20;;;;;;;17.98;3.97;;;25.80;99.90;;;25.12;84.22;100557.06;4943290;28;20208;-66
2022/05/10 09:47:58;;;;;;;12.98;2.97;;;25.90;99.90;;;25.47;86.07;100586.94;4988389;28;20196;-66
2022/05/10 09:50:34;;;;;;;18.48;4.60;;;26.00;99.90;;;25.36;83.10;100517.06;4972878;28;20226;-66
2022/05/10 09:53:31;;;;;;;17.90;8.38;;;26.20;99.90;;;25.66;81.54;100501.13;4967895;28;20231;-66
2022/05/10 09:56:12;;;;;;;33.00;30.23;;;26.50;99.90;;;25.52;81.83;100463.00;4973796;28;20210;-66
2022/05/10 09:58:43;;;;;;;40.10;37.05;;;26.50;99.90;;;25.59;82.84;100464.44;4973506;28;20226;-66
2022/05/10 10:01:15;;;;;;;12.77;11.52;;;26.50;99.90;;;25.81;79.40;100437.13;4937815;28;20665;-67
2022/05/10 10:03:45;;;;;;;41.05;37.95;;;26.80;99.90;;;26.07;80.45;100457.41;4978522;28;20228;-66
2022/05/10 10:06:21;;;;;;;34.33;31.88;;;26.90;99.90;;;26.01;78.58;100409.84;4990084;28;20208;-66
2022/05/10 10:08:56;;;;;;;31.80;29.00;;;27.00;99.90;;;26.20;80.01;100428.66;4961436;28;20700;-66
2022/05/10 10:11:39;;;;;;;52.83;49.28;;;27.20;99.90;;;26.18;75.50;100338.44;4973392;28;20689;-67
2022/05/10 10:14:09;;;;;;;83.38;77.80;;;27.20;99.90;;;26.48;76.03;100381.94;4971057;28;20223;-67
2022/05/10 10:16:48;;;;;;;129.13;121.05;;;27.20;99.90;;;27.16;79.14;100461.16;4952363;28;20667;-66
2022/05/10 10:19:20;;;;;;;62.72;58.63;;;27.70;99.90;;;27.46;75.72;100392.44;4970994;28;20232;-66
2022/05/10 10:21:54;;;;;;;16.08;14.45;;;28.10;99.90;;;25.89;76.62;100204.56;4954785;28;20220;-66
2022/05/10 10:25:24;;;;;;;37.22;34.55;;;27.80;99.90;;;26.44;78.29;100313.44;4970158;28;20684;-66
2022/05/10 10:28:31;;;;;;;20.95;19.00;;;27.90;99.90;;;26.59;77.09;100308.06;4954827;28;20204;-66
2022/05/10 10:31:13;;;;;;;26.35;23.92;;;28.20;99.90;;;26.63;77.63;100283.38;4945939;28;20215;-67
2022/05/10 10:33:49;;;;;;;21.25;18.10;;;28.60;99.90;;;26.61;77.68;100260.03;4966992;28;20204;-67
2022/05/10 10:36:29;;;;;;;18.10;13.98;;;28.60;99.90;;;26.54;75.66;100218.84;4956478;28;20200;-67
2022/05/10 10:39:34;;;;;;;15.80;4.47;;;28.60;99.90;;;27.38;73.91;100285.13;4973323;28;20227;-67
2022/05/10 10:42:48;;;;;;;359.58;336.70;;;29.70;99.90;;;28.03;71.52;100249.28;4966634;28;20215;-66